createdAt,value
2018-08-12T07:29:56.633Z,15.20
2018-08-12T07:32:25.488Z,15.30
2018-08-12T07:34:54.302Z,15.30
2018-08-12T07:37:23.441Z,15.20
2018-08-12T07:42:25.591Z,15.20
2018-08-12T07:44:53.836Z,15.30
2018-08-12T07:47:34.063Z,15.40
2018-08-12T07:50:05.392Z,15.30
2018-08-12T07:52:46.868Z,15.30
2018-08-12T07:55:15.485Z,15.30
2018-08-12T07:57:44.939Z,15.10
2018-08-12T08:00:37.906Z,15.10
2018-08-12T08:03:07.107Z,15.10
2018-08-12T08:05:36.003Z,15.10
2018-08-12T08:08:04.895Z,15.20
2018-08-12T08:10:34.075Z,15.20
2018-08-12T08:13:02.380Z,15.30
2018-08-12T08:15:38.913Z,15.50
2018-08-12T08:18:07.227Z,15.60
2018-08-12T08:20:41.059Z,15.30
2018-08-12T08:23:12.668Z,15.20
2018-08-12T08:25:41.166Z,15.20
2018-08-12T08:30:46.615Z,15.00
2018-08-12T08:40:12.464Z,14.90
2018-08-12T08:42:41.408Z,15.40
2018-08-12T08:52:04.470Z,15.60
2018-08-12T09:01:27.861Z,16.00
2018-08-12T09:03:57.260Z,16.10
2018-08-12T09:06:25.817Z,16.10
2018-08-12T09:09:01.134Z,16.00
2018-08-12T09:11:30.961Z,15.90
2018-08-12T09:13:59.856Z,15.90
2018-08-12T09:16:28.239Z,15.80
2018-08-12T09:18:57.301Z,15.80
2018-08-12T09:21:26.291Z,15.90
2018-08-12T09:23:55.115Z,15.90
2018-08-12T09:26:23.918Z,15.80
2018-08-12T09:28:52.608Z,15.80
2018-08-12T09:31:21.184Z,15.70
2018-08-12T09:33:50.161Z,15.80
2018-08-12T09:36:19.701Z,15.80
2018-08-12T09:41:21.837Z,15.80
2018-08-12T09:43:50.726Z,15.60
2018-08-12T09:46:19.679Z,15.70
2018-08-12T09:48:48.648Z,16.00
2018-08-12T09:51:17.046Z,16.00
2018-08-12T09:53:45.902Z,16.10
2018-08-12T09:56:14.641Z,16.50
2018-08-12T09:58:43.333Z,16.70
2018-08-12T10:01:14.706Z,16.60
2018-08-12T10:03:43.355Z,16.80
2018-08-12T10:06:13.697Z,16.40
2018-08-12T10:08:42.113Z,16.20
2018-08-12T10:11:17.216Z,16.20
2018-08-12T10:13:46.724Z,16.40
2018-08-12T10:16:17.278Z,16.40
2018-08-12T10:24:08.704Z,16.40
2018-08-12T10:26:37.597Z,16.30
2018-08-12T10:29:06.805Z,16.20
2018-08-12T10:31:35.361Z,16.00
2018-08-12T10:34:04.048Z,15.70
2018-08-12T10:36:32.660Z,15.70
2018-08-12T10:39:02.172Z,15.70
2018-08-12T10:41:30.862Z,16.00
2018-08-12T10:44:23.224Z,16.30
2018-08-12T10:46:52.767Z,16.40
2018-08-12T10:49:23.487Z,16.20
2018-08-12T10:59:11.685Z,16.70
2018-08-12T11:01:43.213Z,17.10
2018-08-12T11:04:12.017Z,17.20
2018-08-12T11:06:41.372Z,17.20
2018-08-12T11:09:10.222Z,17.10
2018-08-12T11:14:32.950Z,17.10
2018-08-12T11:17:01.637Z,17.30
2018-08-12T11:19:31.058Z,17.60
2018-08-12T11:25:08.138Z,18.00
2018-08-12T11:27:37.203Z,18.10
2018-08-12T11:30:09.149Z,17.90
2018-08-12T11:32:39.986Z,17.60
2018-08-12T11:35:14.543Z,17.30
2018-08-12T11:37:45.390Z,17.10
2018-08-12T11:40:15.621Z,17.20
2018-08-12T11:42:44.714Z,17.00
2018-08-12T11:45:16.373Z,17.10
2018-08-12T11:47:46.257Z,17.10
2018-08-12T11:50:19.865Z,17.00
2018-08-12T11:52:48.809Z,17.00
2018-08-12T11:55:19.316Z,17.50
2018-08-12T11:57:48.620Z,17.90
2018-08-12T12:05:15.697Z,17.60
2018-08-12T12:07:47.780Z,18.10
2018-08-12T12:13:20.770Z,17.70
2018-08-12T12:15:53.557Z,17.30
2018-08-12T12:18:28.997Z,17.30
2018-08-12T12:20:57.993Z,17.60
2018-08-12T12:23:26.847Z,17.90
2018-08-12T12:25:56.004Z,17.80
2018-08-12T12:28:24.625Z,17.30
2018-08-12T12:33:49.890Z,17.00
2018-08-12T12:36:20.319Z,16.80
2018-08-12T12:38:49.213Z,16.80
2018-08-12T12:41:18.108Z,16.70
2018-08-12T12:44:09.466Z,16.60
2018-08-12T12:46:37.950Z,16.70
2018-08-12T12:49:06.740Z,16.90
2018-08-12T12:51:36.269Z,17.20
2018-08-12T12:54:04.711Z,17.40
2018-08-12T12:56:33.374Z,17.70
2018-08-12T13:02:06.648Z,17.70
2018-08-12T13:10:18.768Z,17.40
2018-08-12T13:12:53.722Z,17.20
2018-08-12T13:15:22.853Z,17.10
2018-08-12T13:20:30.205Z,17.40
2018-08-12T13:23:03.469Z,17.60
2018-08-12T13:25:33.236Z,17.90
2018-08-12T13:28:08.067Z,18.20
2018-08-12T13:33:49.128Z,18.20
2018-08-12T13:36:17.729Z,17.70
2018-08-12T13:38:47.953Z,17.80
2018-08-12T13:41:16.950Z,18.00
2018-08-12T13:43:45.948Z,18.10
2018-08-12T13:46:14.832Z,18.20
2018-08-12T13:51:43.022Z,18.00
2018-08-12T13:54:18.261Z,17.90
2018-08-12T13:56:46.849Z,17.80
2018-08-12T13:59:15.257Z,17.50
2018-08-12T14:01:44.063Z,17.90
2018-08-12T14:04:13.991Z,18.10
2018-08-12T14:06:42.987Z,18.50
2018-08-12T14:17:08.217Z,17.90
2018-08-12T14:19:36.779Z,17.30
2018-08-12T14:22:05.614Z,17.00
2018-08-12T14:24:33.713Z,16.90
2018-08-12T14:27:02.540Z,16.70
2018-08-12T14:29:56.915Z,16.40
2018-08-12T14:32:26.604Z,16.40
2018-08-12T14:34:58.490Z,16.60
2018-08-12T14:37:39.426Z,16.80
2018-08-12T14:40:11.426Z,17.00
2018-08-12T14:42:39.905Z,17.10
2018-08-12T14:45:10.364Z,17.20
2018-08-12T14:47:39.641Z,17.00
2018-08-12T14:50:10.968Z,17.00
2018-08-12T14:52:44.353Z,16.90
2018-08-12T14:57:49.143Z,16.60
2018-08-12T15:00:20.143Z,16.40
2018-08-12T15:02:50.642Z,16.50
2018-08-12T15:05:19.707Z,16.50
2018-08-12T15:07:48.679Z,16.50
2018-08-12T15:10:20.157Z,16.40
2018-08-12T15:12:48.810Z,16.30
2018-08-12T15:15:18.009Z,16.20
2018-08-12T15:17:47.144Z,16.30
2018-08-12T15:20:16.789Z,16.30
2018-08-12T15:22:48.818Z,16.10
2018-08-12T15:25:20.379Z,15.80
2018-08-12T15:27:49.682Z,15.50
2018-08-12T15:30:18.474Z,15.30
2018-08-12T15:32:46.755Z,15.20
2018-08-12T15:35:16.467Z,15.10
2018-08-12T15:37:46.218Z,15.10
2018-08-12T15:40:16.509Z,15.10
2018-08-12T15:42:45.504Z,15.10
2018-08-12T15:45:15.626Z,15.20
2018-08-12T15:47:45.139Z,15.10
2018-08-12T15:50:14.742Z,15.00
2018-08-12T15:52:46.809Z,15.00
2018-08-12T15:58:09.044Z,15.10
2018-08-12T16:08:24.185Z,15.20
2018-08-12T16:10:59.011Z,15.20
2018-08-12T16:13:32.047Z,15.60
2018-08-12T16:20:36.576Z,15.60
2018-08-12T16:23:05.438Z,15.60
2018-08-12T16:25:33.932Z,15.30
2018-08-12T16:28:09.553Z,15.20
2018-08-12T16:30:51.471Z,15.20
2018-08-12T16:33:20.175Z,15.20
2018-08-12T16:35:54.784Z,15.20
2018-08-12T16:38:25.852Z,15.20
2018-08-12T16:40:55.153Z,15.30
2018-08-12T16:43:23.951Z,15.40
2018-08-12T16:45:53.150Z,15.30
2018-08-12T16:48:23.275Z,15.30
2018-08-12T16:51:00.009Z,15.30
2018-08-12T17:00:26.152Z,15.40
2018-08-12T17:02:55.250Z,15.50
2018-08-12T17:05:24.759Z,15.60
2018-08-12T17:10:35.441Z,15.60
2018-08-12T17:13:27.667Z,15.60
2018-08-12T17:15:56.322Z,15.60
2018-08-12T17:23:04.211Z,15.70
2018-08-12T17:25:34.410Z,15.60
2018-08-12T17:28:04.225Z,15.60
2018-08-12T17:33:43.434Z,15.40
2018-08-12T17:36:28.854Z,15.30
2018-08-12T17:42:05.903Z,15.20
2018-08-12T17:44:40.317Z,15.10
2018-08-12T17:47:09.663Z,15.00
2018-08-12T17:57:03.684Z,15.10
2018-08-12T18:02:09.168Z,14.90
2018-08-12T18:04:38.190Z,14.90
2018-08-12T18:07:08.050Z,14.90
2018-08-12T18:09:40.252Z,14.80
2018-08-12T18:12:09.659Z,14.70
2018-08-12T18:14:46.167Z,14.70
2018-08-12T18:17:16.247Z,14.80
2018-08-12T18:19:56.602Z,14.70
2018-08-12T18:22:27.647Z,14.60
2018-08-12T18:24:56.383Z,14.60
2018-08-12T18:27:25.230Z,14.50
2018-08-12T18:29:53.715Z,14.50
2018-08-12T18:32:22.298Z,14.40
2018-08-12T18:34:50.984Z,14.50
2018-08-12T18:37:20.213Z,14.40
2018-08-12T18:47:10.652Z,14.40
2018-08-12T18:49:39.514Z,14.20
2018-08-12T18:52:08.032Z,14.10
2018-08-12T18:54:43.454Z,14.10
2018-08-12T18:57:13.086Z,14.00
2018-08-12T18:59:42.999Z,13.80
2018-08-12T19:06:31.030Z,13.80
2018-08-12T19:08:59.592Z,13.80
2018-08-12T19:11:33.552Z,13.70
2018-08-12T19:14:07.102Z,13.60
2018-08-12T19:16:41.010Z,13.60
2018-08-12T19:19:09.961Z,13.60
2018-08-12T19:21:37.609Z,13.50
2018-08-12T19:24:06.662Z,13.50
2018-08-12T19:26:34.417Z,13.60
2018-08-12T19:29:03.395Z,13.60
2018-08-12T19:31:31.362Z,13.60
2018-08-12T19:33:59.294Z,13.60
2018-08-12T19:36:28.787Z,13.50
2018-08-12T19:38:57.248Z,13.50
2018-08-12T19:41:26.570Z,13.50
2018-08-12T19:43:55.220Z,13.50
2018-08-12T19:46:23.795Z,13.40
2018-08-12T19:48:52.492Z,13.50
2018-08-12T19:51:21.536Z,13.50
2018-08-12T19:53:50.110Z,13.40
2018-08-12T19:56:18.866Z,13.40
2018-08-12T19:58:47.991Z,13.40
2018-08-12T20:01:16.463Z,13.30
2018-08-12T20:03:48.544Z,13.30
2018-08-12T20:06:17.054Z,13.20
2018-08-12T20:08:51.048Z,13.20
2018-08-12T20:11:20.062Z,13.20
2018-08-12T20:14:21.677Z,13.10
2018-08-12T20:16:50.452Z,13.00
2018-08-12T20:19:19.285Z,12.90
2018-08-12T20:21:48.872Z,12.80
2018-08-12T20:24:17.501Z,12.80
2018-08-12T20:26:46.081Z,12.70
2018-08-12T20:29:14.532Z,12.60
2018-08-12T20:31:45.319Z,12.60
2018-08-12T20:34:13.982Z,12.60
2018-08-12T20:36:43.388Z,12.60
2018-08-12T20:39:13.204Z,12.50
2018-08-12T20:41:43.141Z,12.50
2018-08-12T20:44:12.388Z,12.40
2018-08-12T20:46:40.886Z,12.40
2018-08-12T20:49:10.112Z,12.40
2018-08-12T20:51:46.351Z,12.40
2018-08-12T20:54:15.165Z,12.40
2018-08-12T20:56:49.585Z,12.40
2018-08-12T20:59:40.048Z,12.40
2018-08-12T21:02:08.558Z,12.30
2018-08-12T21:04:37.145Z,12.40
2018-08-12T21:10:21.154Z,12.40
2018-08-12T21:12:49.437Z,12.40
2018-08-12T21:15:18.056Z,12.40
2018-08-12T21:17:46.718Z,12.40
2018-08-12T21:20:15.501Z,12.40
2018-08-12T21:22:51.684Z,12.50
2018-08-12T21:25:19.903Z,12.50
2018-08-12T21:27:48.357Z,12.50
2018-08-12T21:30:17.135Z,12.50
2018-08-12T21:32:45.841Z,12.50
2018-08-12T21:35:15.217Z,12.60
2018-08-12T21:37:49.502Z,12.60
2018-08-12T21:40:23.883Z,12.60
2018-08-12T21:42:52.470Z,12.60
2018-08-12T21:45:21.098Z,12.60
2018-08-12T21:47:49.481Z,12.50
2018-08-12T21:50:25.599Z,12.40
2018-08-12T21:53:00.087Z,12.30
2018-08-12T21:55:28.787Z,12.20
2018-08-12T21:57:59.139Z,12.10
2018-08-12T22:00:34.455Z,12.00
2018-08-12T22:03:05.114Z,12.00
2018-08-12T22:05:34.230Z,12.00
2018-08-12T22:10:43.632Z,11.80
2018-08-12T22:13:12.104Z,11.80
2018-08-12T22:15:59.929Z,11.80
2018-08-12T22:18:28.425Z,11.80
2018-08-12T22:20:57.260Z,11.90
2018-08-12T22:23:29.911Z,11.90
2018-08-12T22:25:59.024Z,11.90
2018-08-12T22:28:28.035Z,11.90
2018-08-12T22:30:56.629Z,11.80
2018-08-12T22:33:25.206Z,11.80
2018-08-12T22:35:56.673Z,11.70
2018-08-12T22:38:25.292Z,11.70
2018-08-12T22:40:54.040Z,11.60
2018-08-12T22:43:22.910Z,11.60
2018-08-12T22:45:51.622Z,11.70
2018-08-12T22:48:20.798Z,11.70
2018-08-12T22:50:49.615Z,11.70
2018-08-12T22:53:18.237Z,11.60
2018-08-12T22:55:48.095Z,11.50
2018-08-12T22:58:16.729Z,11.40
2018-08-12T23:00:45.449Z,11.30
2018-08-12T23:03:14.516Z,11.30
2018-08-12T23:05:42.805Z,11.30
2018-08-12T23:08:11.774Z,11.20
2018-08-12T23:10:41.051Z,11.20
2018-08-12T23:13:09.869Z,11.30
2018-08-12T23:16:15.935Z,11.40
2018-08-12T23:18:44.497Z,11.30
2018-08-12T23:21:15.082Z,11.30
2018-08-12T23:23:44.970Z,11.30
2018-08-12T23:26:14.967Z,11.30
2018-08-12T23:28:44.066Z,11.40
2018-08-12T23:31:13.677Z,11.40
2018-08-12T23:33:44.414Z,11.40
2018-08-12T23:36:13.512Z,11.40
2018-08-12T23:38:56.937Z,11.50
2018-08-12T23:41:25.424Z,11.50
2018-08-12T23:43:56.389Z,11.60
2018-08-12T23:49:27.437Z,11.70
2018-08-12T23:51:56.077Z,11.60
2018-08-12T23:54:25.425Z,11.60
2018-08-12T23:56:54.503Z,11.60
2018-08-12T23:59:23.295Z,11.50
